Kovrov, Russia
Current Conditions -  °F | °C
As of 7:30 AM on Thursday 27 Nov 2014 (Local Time) from UUDL Reporting Station
Overcast Overcast  
Wind Chill: 19°   Ceiling: 900
Heat Index: 25°   Visibility: 4mi
Dew Point: 23°   Wind: 4mph
Humidity: 93%   Direction: 260°W
Pressure: 30.42"   Gusts: NA
Location:  56.36°N, 41.32°E
Report Text: UUDL 270430Z 26002MPS 6000 OVC009 M04/M05 Q1030 NOSIG RMKQFE764
Loading
Personal Weather Stations






























Interactive Weather Map New forecast layout! Learn more

10-Day Weather Forecast

Advertisements
Track Severe Weather on mobile